Terminal Aerodrome Forecast
Issued by NWS

Current Version | Previous Version | Text Only | Print | Product List | Glossary Off
Versions: 1 2 3 4 5 6 7 8 9 10 11 12 13 14 15 16 17 18 19 20 21 22 23 24 25 26 27 28 29 30 31 32 33 34 35 36 37 38 39 40 41 42 43 44 45 46 47 48 49 50

000
FTUS41 KRNK 220346 AAB
TAFLWB
TAF AMD
KLWB 220346Z 2204/2224 00000KT P6SM BKN015
     FM220400 00000KT 4SM BR OVC010
     FM220600 00000KT 1SM BR SCT001 OVC008
      TEMPO 2209/2212 1/4SM FG OVC001
     FM221430 VRB03KT P6SM BKN025 BKN040
     FM221600 17005KT P6SM BKN040=

USA.gov is the U.S. government's official web portal to all federal, state and local government web resources and services.